Time;durP1;ratioP1;P1;durP2;ratioP2;P2;SDS_P1;SDS_P2;PMS_P1;PMS_P2;Temp;Humidity;BMP_temperature;BMP_pressure;BME280_temperature;BME280_humidity;BME280_pressure;Samples;Min_cycle;Max_cycle;Signal;HPM_P1;HPM_P2
2023/05/24 00:01:41;;;;;;;13.07;7.25;;;11.60;95.00;;;;;;5086891;28;20028;-71
2023/05/24 00:04:07;;;;;;;13.45;8.15;;;11.70;95.10;;;;;;5097326;28;20104;-70
2023/05/24 00:06:36;;;;;;;10.48;7.15;;;11.70;95.50;;;;;;5096540;28;20024;-70
2023/05/24 00:09:02;;;;;;;10.23;7.00;;;11.60;95.40;;;;;;5095000;28;20027;-71
2023/05/24 00:11:31;;;;;;;9.93;6.90;;;11.60;95.20;;;;;;5096673;28;20028;-71
2023/05/24 00:13:57;;;;;;;13.02;7.18;;;11.70;95.60;;;;;;5094455;28;20325;-70
2023/05/24 00:16:22;;;;;;;12.70;7.90;;;11.70;95.60;;;;;;5089990;28;20039;-71
2023/05/24 00:18:48;;;;;;;12.23;7.55;;;11.60;95.60;;;;;;5084614;28;20032;-71
2023/05/24 00:21:14;;;;;;;9.20;7.00;;;11.50;95.20;;;;;;5091250;28;20036;-71
2023/05/24 00:23:41;;;;;;;10.88;7.20;;;11.50;95.30;;;;;;5098150;28;20102;-71
2023/05/24 00:26:07;;;;;;;11.10;7.20;;;11.50;95.40;;;;;;5096433;28;20024;-72
2023/05/24 00:28:33;;;;;;;9.85;7.55;;;11.40;94.90;;;;;;5077670;28;20023;-70
2023/05/24 00:30:59;;;;;;;11.55;7.45;;;11.40;94.80;;;;;;5113170;28;20031;-69
2023/05/24 00:33:25;;;;;;;14.65;9.50;;;11.30;94.80;;;;;;5116812;28;20016;-71
2023/05/24 00:35:55;;;;;;;11.27;7.97;;;11.30;95.10;;;;;;5096466;28;20050;-71
2023/05/24 00:38:21;;;;;;;11.23;7.45;;;11.40;94.90;;;;;;5089939;28;20024;-72
2023/05/24 00:40:47;;;;;;;8.88;6.80;;;11.40;95.10;;;;;;5063637;28;20334;-71
2023/05/24 00:43:13;;;;;;;12.63;8.10;;;11.50;95.00;;;;;;5085650;28;20023;-71
2023/05/24 00:45:41;;;;;;;11.43;7.57;;;11.50;95.40;;;;;;5086286;28;20028;-71
2023/05/24 00:48:08;;;;;;;13.05;7.32;;;11.50;95.20;;;;;;5087578;28;20039;-71
2023/05/24 00:50:35;;;;;;;12.27;7.85;;;11.50;96.10;;;;;;5082157;28;20036;-71
2023/05/24 00:53:02;;;;;;;11.13;7.72;;;11.50;96.10;;;;;;5078189;28;20633;-71
2023/05/24 00:55:29;;;;;;;11.25;7.43;;;11.60;95.80;;;;;;5076111;28;20028;-71
2023/05/24 00:57:56;;;;;;;12.02;7.93;;;11.60;96.30;;;;;;5077698;28;20027;-70
2023/05/24 01:00:22;;;;;;;12.73;8.23;;;11.60;96.20;;;;;;5077100;28;20024;-72
2023/05/24 01:02:49;;;;;;;12.02;7.97;;;11.40;96.10;;;;;;5076150;28;20452;-71
2023/05/24 01:05:16;;;;;;;10.55;7.57;;;11.40;95.50;;;;;;5074805;28;20028;-71
2023/05/24 01:08:06;;;;;;;11.82;7.57;;;11.40;95.50;;;;;;5083701;28;20024;-71
2023/05/24 01:10:59;;;;;;;11.32;7.32;;;11.40;95.40;;;;;;5090099;28;20126;-72
2023/05/24 01:13:44;;;;;;;10.98;7.43;;;11.30;95.40;;;;;;5094666;28;20054;-72
2023/05/24 01:16:14;;;;;;;12.90;8.20;;;11.20;95.40;;;;;;5094981;28;20448;-71
2023/05/24 01:18:51;;;;;;;14.75;8.82;;;11.30;95.50;;;;;;5083252;28;20024;-71
2023/05/24 01:21:58;;;;;;;13.27;8.82;;;11.20;95.90;;;;;;5083196;28;20071;-71
2023/05/24 01:24:36;;;;;;;11.30;7.80;;;11.20;95.80;;;;;;5057791;28;20025;-71
2023/05/24 01:27:11;;;;;;;13.48;8.00;;;11.10;95.20;;;;;;5077358;28;20050;-71
2023/05/24 01:29:38;;;;;;;11.32;8.00;;;11.10;95.60;;;;;;5086110;28;20050;-70
2023/05/24 01:32:04;;;;;;;12.18;8.18;;;11.10;95.30;;;;;;5092043;28;20492;-71
2023/05/24 01:34:30;;;;;;;14.13;8.50;;;11.00;95.10;;;;;;5094670;28;20359;-70
2023/05/24 01:36:55;;;;;;;14.07;8.27;;;11.00;95.20;;;;;;5094187;28;20044;-71
2023/05/24 01:39:24;;;;;;;14.23;9.15;;;11.00;95.20;;;;;;5092059;28;20047;-72
2023/05/24 01:41:59;;;;;;;13.18;8.23;;;11.00;95.20;;;;;;5094808;28;20379;-71
2023/05/24 01:45:03;;;;;;;11.13;7.90;;;11.00;94.90;;;;;;5079997;28;20024;-71
2023/05/24 01:47:56;;;;;;;11.20;6.72;;;10.90;94.90;;;;;;5068448;28;20455;-71
2023/05/24 01:50:30;;;;;;;10.00;6.45;;;11.00;95.00;;;;;;5080058;28;20417;-71
2023/05/24 01:52:59;;;;;;;10.30;6.53;;;11.10;95.00;;;;;;5076541;28;20028;-71
2023/05/24 01:55:27;;;;;;;11.95;6.75;;;11.10;95.50;;;;;;5094739;28;20425;-71
2023/05/24 01:57:57;;;;;;;14.20;7.35;;;11.20;95.60;;;;;;5086969;28;20313;-71
2023/05/24 02:00:23;;;;;;;10.02;6.70;;;11.10;95.90;;;;;;5071502;28;20437;-70
2023/05/24 02:02:49;;;;;;;9.73;6.93;;;11.10;96.00;;;;;;5092441;28;20456;-71
2023/05/24 02:05:15;;;;;;;16.30;7.32;;;11.10;96.30;;;;;;5086874;28;20024;-71
2023/05/24 02:07:41;;;;;;;11.45;6.60;;;11.10;96.60;;;;;;5079495;28;20417;-70
2023/05/24 02:10:07;;;;;;;10.70;6.93;;;11.10;96.40;;;;;;5068285;28;20073;-71
2023/05/24 02:12:33;;;;;;;12.20;7.22;;;11.00;96.50;;;;;;5095394;28;20031;-71
2023/05/24 02:14:59;;;;;;;10.85;6.50;;;10.90;96.50;;;;;;5094623;28;20107;-71
2023/05/24 02:17:25;;;;;;;12.80;7.32;;;11.00;96.20;;;;;;5092088;28;20028;-71
2023/05/24 02:19:51;;;;;;;8.85;6.30;;;11.00;96.90;;;;;;5075907;28;20013;-71
2023/05/24 02:22:17;;;;;;;10.55;6.70;;;11.00;96.60;;;;;;5083045;28;20111;-70
2023/05/24 02:24:47;;;;;;;13.00;7.65;;;11.00;96.80;;;;;;5092194;28;20028;-71
2023/05/24 02:27:12;;;;;;;13.75;7.22;;;11.00;97.40;;;;;;5094736;28;20020;-71
2023/05/24 02:29:38;;;;;;;10.25;6.60;;;11.00;97.40;;;;;;5093111;28;20054;-71
2023/05/24 02:32:04;;;;;;;9.00;6.50;;;10.90;97.20;;;;;;5082012;28;20099;-71
2023/05/24 02:34:29;;;;;;;10.38;6.82;;;10.90;98.00;;;;;;5089962;28;20084;-71
2023/05/24 02:36:58;;;;;;;10.23;6.07;;;10.90;98.00;;;;;;5093759;28;20062;-70
2023/05/24 02:39:23;;;;;;;10.85;6.70;;;10.90;98.00;;;;;;5077483;28;20040;-72
2023/05/24 02:41:49;;;;;;;11.63;6.47;;;10.90;98.00;;;;;;5088084;28;20027;-71
2023/05/24 02:44:15;;;;;;;9.55;5.95;;;10.90;98.00;;;;;;5085055;28;20025;-71
2023/05/24 02:46:40;;;;;;;15.52;6.93;;;11.00;98.00;;;;;;5087708;28;20069;-71
2023/05/24 02:49:06;;;;;;;9.02;6.03;;;10.90;98.00;;;;;;5092170;28;20038;-71
2023/05/24 02:51:32;;;;;;;12.20;5.78;;;10.90;98.00;;;;;;5092070;28;20047;-71
2023/05/24 02:54:00;;;;;;;10.68;6.38;;;10.80;98.00;;;;;;5090415;28;20427;-71
2023/05/24 02:56:26;;;;;;;11.13;6.00;;;10.80;98.00;;;;;;5094482;28;20035;-72
2023/05/24 02:58:53;;;;;;;10.25;5.50;;;10.70;98.00;;;;;;5086356;28;20028;-71
2023/05/24 03:01:19;;;;;;;10.70;5.60;;;10.70;98.00;;;;;;5075931;28;20036;-72
2023/05/24 03:03:45;;;;;;;9.55;5.63;;;10.70;98.00;;;;;;5087576;28;20032;-72
2023/05/24 03:06:12;;;;;;;11.38;5.93;;;10.70;98.00;;;;;;5094888;28;20321;-72
2023/05/24 03:08:38;;;;;;;11.05;5.55;;;10.70;98.00;;;;;;5087488;28;20028;-72
2023/05/24 03:11:04;;;;;;;13.55;6.88;;;10.70;98.00;;;;;;5091882;28;20107;-71
2023/05/24 03:13:30;;;;;;;10.13;6.25;;;10.60;98.00;;;;;;5081581;28;20190;-71
2023/05/24 03:15:55;;;;;;;12.82;6.60;;;10.60;98.00;;;;;;5094971;28;20134;-72
2023/05/24 03:18:21;;;;;;;14.77;7.38;;;10.50;98.00;;;;;;5092636;28;20094;-71
2023/05/24 03:20:46;;;;;;;12.50;6.30;;;10.50;98.00;;;;;;5091581;28;20035;-72
2023/05/24 03:23:13;;;;;;;11.45;6.43;;;10.50;98.00;;;;;;5095489;28;20047;-72
2023/05/24 03:25:39;;;;;;;12.95;6.43;;;10.30;98.00;;;;;;5093550;28;20428;-72
2023/05/24 03:28:05;;;;;;;14.13;6.57;;;10.30;98.00;;;;;;5069410;28;20029;-71
2023/05/24 03:30:31;;;;;;;11.38;6.47;;;10.30;98.00;;;;;;5085219;28;20321;-71
2023/05/24 03:32:57;;;;;;;14.32;6.43;;;10.30;98.00;;;;;;5094807;28;20040;-72
2023/05/24 03:35:22;;;;;;;16.02;6.90;;;10.30;98.00;;;;;;5095115;28;20078;-71
2023/05/24 03:37:48;;;;;;;11.95;5.88;;;10.20;98.00;;;;;;5091245;28;20302;-71
2023/05/24 03:40:14;;;;;;;12.52;5.72;;;10.20;98.00;;;;;;5081296;28;20064;-72
2023/05/24 03:42:40;;;;;;;12.95;5.50;;;10.20;98.00;;;;;;5081458;28;20062;-70
2023/05/24 03:45:06;;;;;;;15.52;6.88;;;10.10;98.00;;;;;;5076304;28;20017;-69
2023/05/24 03:47:31;;;;;;;12.60;5.90;;;10.10;98.00;;;;;;5091273;28;20081;-70
2023/05/24 03:49:57;;;;;;;14.70;6.20;;;10.10;98.00;;;;;;5063042;28;20033;-71
2023/05/24 03:52:23;;;;;;;10.63;5.72;;;10.10;98.00;;;;;;5077925;28;21955;-70
2023/05/24 03:54:49;;;;;;;13.98;6.18;;;10.10;98.00;;;;;;5076554;28;20024;-72
2023/05/24 03:57:15;;;;;;;14.57;6.32;;;10.20;98.00;;;;;;5087256;28;20039;-71
2023/05/24 03:59:40;;;;;;;13.52;5.80;;;10.20;98.00;;;;;;5095794;28;20033;-72
2023/05/24 04:02:06;;;;;;;13.40;5.82;;;10.20;98.00;;;;;;5091527;28;20032;-71
2023/05/24 04:04:31;;;;;;;16.08;7.20;;;10.20;98.00;;;;;;5094427;28;20032;-71
2023/05/24 04:06:57;;;;;;;11.88;6.45;;;10.20;98.00;;;;;;5096512;28;20020;-71
2023/05/24 04:09:23;;;;;;;13.73;6.15;;;10.10;98.00;;;;;;5095887;28;20061;-70
2023/05/24 04:11:49;;;;;;;14.30;6.57;;;10.10;98.00;;;;;;5096975;28;20024;-71
2023/05/24 04:14:18;;;;;;;15.88;6.13;;;10.00;98.00;;;;;;5081375;28;20039;-70
2023/05/24 04:16:47;;;;;;;20.45;7.07;;;10.10;98.00;;;;;;5092687;28;20024;-70
2023/05/24 04:19:12;;;;;;;14.30;6.10;;;10.20;98.00;;;;;;5090855;28;20031;-71
2023/05/24 04:21:38;;;;;;;13.95;6.53;;;10.10;98.00;;;;;;5088856;28;20036;-71
2023/05/24 04:24:04;;;;;;;14.15;6.93;;;10.20;98.00;;;;;;5089546;28;20341;-71
2023/05/24 04:26:30;;;;;;;14.75;6.53;;;10.20;98.00;;;;;;5087880;28;20024;-71
2023/05/24 04:28:56;;;;;;;15.15;6.05;;;10.20;98.00;;;;;;5083919;28;20017;-72
2023/05/24 04:31:22;;;;;;;17.55;7.20;;;10.30;98.00;;;;;;5078489;28;20069;-71
2023/05/24 04:33:48;;;;;;;13.02;5.90;;;10.30;98.00;;;;;;5093252;28;20020;-71
2023/05/24 04:36:15;;;;;;;13.88;6.75;;;10.30;98.00;;;;;;5069067;28;20090;-72
2023/05/24 04:38:46;;;;;;;14.05;6.57;;;10.30;98.00;;;;;;5083663;28;20058;-71
2023/05/24 04:41:12;;;;;;;17.65;6.38;;;10.10;98.00;;;;;;5096768;28;20028;-71
2023/05/24 04:43:37;;;;;;;19.50;6.88;;;10.10;98.00;;;;;;5089365;28;20101;-70
2023/05/24 04:46:03;;;;;;;13.80;6.07;;;10.30;98.00;;;;;;5090278;28;20467;-71
2023/05/24 04:48:29;;;;;;;15.93;6.43;;;10.20;98.00;;;;;;5095052;28;20024;-71
2023/05/24 04:50:57;;;;;;;14.20;5.65;;;10.30;98.00;;;;;;5092319;28;20348;-71
2023/05/24 04:53:26;;;;;;;14.38;6.07;;;10.40;98.00;;;;;;5091669;28;20135;-71
2023/05/24 04:55:55;;;;;;;15.15;6.10;;;10.50;98.00;;;;;;5090623;28;20074;-71
2023/05/24 04:58:21;;;;;;;11.82;6.35;;;10.70;98.00;;;;;;5078243;28;20040;-71
2023/05/24 05:00:46;;;;;;;10.50;5.57;;;10.90;98.00;;;;;;5095074;28;20317;-71
2023/05/24 05:03:12;;;;;;;12.80;6.25;;;11.00;98.00;;;;;;5093434;28;20068;-70
2023/05/24 05:05:38;;;;;;;16.48;6.10;;;11.10;98.00;;;;;;5091165;28;20028;-71
2023/05/24 05:08:03;;;;;;;16.67;6.05;;;11.30;98.00;;;;;;5086869;28;20564;-72
2023/05/24 05:10:29;;;;;;;11.65;5.40;;;11.40;97.70;;;;;;5089225;28;20035;-72
2023/05/24 05:12:54;;;;;;;17.33;7.05;;;11.40;97.90;;;;;;5095600;28;20031;-72
2023/05/24 05:15:22;;;;;;;18.02;6.40;;;11.50;97.70;;;;;;5089272;28;20048;-72
2023/05/24 05:17:48;;;;;;;19.75;6.28;;;11.60;97.20;;;;;;5091511;28;20035;-72
2023/05/24 05:20:13;;;;;;;16.45;6.75;;;11.70;97.20;;;;;;5091946;28;20336;-72
2023/05/24 05:22:47;;;;;;;14.30;6.28;;;11.80;96.40;;;;;;5095191;28;20024;-72
2023/05/24 05:25:13;;;;;;;14.27;6.03;;;11.70;96.40;;;;;;5095178;28;20020;-72
2023/05/24 05:27:39;;;;;;;12.68;6.32;;;11.70;96.90;;;;;;5090695;28;20025;-71
2023/05/24 05:30:05;;;;;;;13.80;6.70;;;11.60;96.90;;;;;;5095706;28;20437;-72
2023/05/24 05:32:30;;;;;;;16.95;7.22;;;11.40;97.80;;;;;;5087624;28;20062;-72
2023/05/24 05:34:56;;;;;;;15.63;7.05;;;11.20;98.00;;;;;;5089545;28;20036;-72
2023/05/24 05:37:21;;;;;;;15.93;7.10;;;11.00;98.00;;;;;;5080904;28;20070;-72
2023/05/24 05:39:50;;;;;;;15.80;7.72;;;10.90;98.00;;;;;;5092371;28;20063;-71
2023/05/24 05:42:15;;;;;;;15.77;7.00;;;10.80;98.00;;;;;;5079792;28;20322;-71
2023/05/24 05:44:41;;;;;;;13.80;6.60;;;11.00;98.00;;;;;;5085517;28;20027;-71
2023/05/24 05:47:08;;;;;;;15.73;7.40;;;10.90;98.00;;;;;;5072231;28;20119;-71
2023/05/24 05:49:35;;;;;;;15.63;6.97;;;10.70;98.00;;;;;;5083335;28;20016;-71
2023/05/24 05:52:02;;;;;;;15.73;7.25;;;10.80;98.00;;;;;;5082149;28;20052;-71
2023/05/24 05:54:27;;;;;;;19.38;7.72;;;10.60;98.00;;;;;;5090615;28;20028;-71
2023/05/24 05:56:53;;;;;;;17.17;7.97;;;10.70;98.00;;;;;;5082491;28;20809;-71
2023/05/24 05:59:18;;;;;;;14.85;6.90;;;10.70;98.00;;;;;;5092898;28;20032;-72
2023/05/24 06:01:46;;;;;;;16.83;8.30;;;10.60;98.00;;;;;;5070434;28;20054;-71
2023/05/24 06:04:12;;;;;;;20.15;7.63;;;10.60;98.00;;;;;;5085791;28;20051;-71
2023/05/24 06:06:38;;;;;;;17.17;6.95;;;10.60;98.00;;;;;;5084921;28;20027;-71
2023/05/24 06:09:04;;;;;;;13.85;7.13;;;10.80;98.00;;;;;;5091326;28;20032;-71
2023/05/24 06:11:30;;;;;;;17.60;7.38;;;11.00;98.00;;;;;;5087251;28;20020;-72
2023/05/24 06:13:55;;;;;;;18.45;7.00;;;11.00;98.00;;;;;;5077165;28;20028;-71
2023/05/24 06:16:21;;;;;;;15.43;7.10;;;11.00;98.00;;;;;;5084274;28;20391;-71
2023/05/24 06:18:47;;;;;;;19.45;7.80;;;10.90;98.00;;;;;;5090593;28;20317;-71
2023/05/24 06:21:14;;;;;;;14.30;7.07;;;10.70;98.00;;;;;;5096182;28;20113;-71
2023/05/24 06:23:39;;;;;;;16.33;7.57;;;10.70;98.00;;;;;;5096330;28;20382;-71
2023/05/24 06:26:08;;;;;;;19.20;8.18;;;10.50;98.00;;;;;;5088251;28;20101;-71
2023/05/24 06:28:34;;;;;;;17.13;7.53;;;10.60;98.00;;;;;;5095561;28;20024;-71
2023/05/24 06:31:00;;;;;;;15.73;6.47;;;10.70;98.00;;;;;;5081000;28;20334;-71
2023/05/24 06:33:26;;;;;;;19.85;7.38;;;10.80;98.00;;;;;;5075995;28;20025;-71
2023/05/24 06:35:52;;;;;;;19.52;7.95;;;10.70;98.00;;;;;;5075548;28;20045;-71
2023/05/24 06:38:17;;;;;;;16.50;7.72;;;10.70;98.00;;;;;;5076152;28;20033;-71
2023/05/24 06:40:43;;;;;;;15.27;6.70;;;10.50;98.00;;;;;;5092243;28;20043;-71
2023/05/24 06:43:09;;;;;;;15.88;7.28;;;10.60;98.00;;;;;;5096190;28;20056;-71
2023/05/24 06:45:35;;;;;;;15.27;6.72;;;10.90;98.00;;;;;;5085195;28;20403;-71
2023/05/24 06:48:00;;;;;;;12.30;6.22;;;11.20;98.00;;;;;;5095204;28;20057;-71
2023/05/24 06:50:26;;;;;;;16.30;6.75;;;11.60;98.00;;;;;;5095938;28;20086;-71
2023/05/24 06:52:52;;;;;;;17.20;6.90;;;11.70;97.00;;;;;;5090600;28;20024;-71
2023/05/24 06:55:18;;;;;;;16.08;6.35;;;11.90;97.40;;;;;;5083857;28;20032;-71
2023/05/24 06:57:44;;;;;;;12.50;6.35;;;12.40;96.60;;;;;;5088495;28;20024;-71
2023/05/24 07:00:10;;;;;;;16.25;6.47;;;13.00;95.20;;;;;;5095267;28;20050;-71
2023/05/24 07:02:37;;;;;;;16.48;7.10;;;13.10;92.90;;;;;;5092285;28;20416;-71
2023/05/24 07:05:03;;;;;;;12.63;6.45;;;13.10;93.00;;;;;;5084965;28;20031;-71
2023/05/24 07:07:31;;;;;;;12.70;5.93;;;13.10;93.10;;;;;;5077843;28;20020;-71
2023/05/24 07:09:57;;;;;;;15.25;6.55;;;13.20;93.20;;;;;;5078265;28;20023;-71
2023/05/24 07:12:22;;;;;;;17.67;6.57;;;13.10;93.30;;;;;;5081532;28;20066;-71
2023/05/24 07:14:48;;;;;;;17.23;7.18;;;12.90;94.00;;;;;;5078101;28;20029;-71
2023/05/24 07:17:13;;;;;;;18.27;7.40;;;12.60;94.00;;;;;;5089641;28;20028;-71
2023/05/24 07:19:40;;;;;;;19.55;7.57;;;12.40;94.30;;;;;;5093976;28;20431;-71
2023/05/24 07:22:06;;;;;;;23.35;7.18;;;12.10;95.20;;;;;;5082441;28;20031;-71
2023/05/24 07:24:31;;;;;;;15.55;7.07;;;11.80;95.40;;;;;;5074323;28;20318;-71
2023/05/24 07:26:57;;;;;;;16.83;7.35;;;11.90;95.80;;;;;;5075234;28;20029;-71
2023/05/24 07:29:23;;;;;;;20.45;7.97;;;12.20;95.50;;;;;;5058475;28;20023;-71
2023/05/24 07:31:51;;;;;;;17.75;8.10;;;12.30;94.40;;;;;;5097319;28;20028;-72
2023/05/24 07:34:20;;;;;;;15.27;6.93;;;12.60;94.80;;;;;;5099351;28;20054;-71
2023/05/24 07:36:47;;;;;;;17.95;7.00;;;12.90;94.30;;;;;;5089522;28;20111;-71
2023/05/24 07:39:14;;;;;;;15.18;6.78;;;13.20;92.70;;;;;;5090478;28;20037;-71
2023/05/24 07:41:40;;;;;;;19.45;6.85;;;13.50;91.80;;;;;;5091914;28;20103;-71
2023/05/24 07:44:06;;;;;;;12.10;6.13;;;13.90;92.20;;;;;;5096240;28;20104;-72
2023/05/24 07:46:32;;;;;;;17.95;7.13;;;14.20;89.90;;;;;;5092191;28;20343;-71
2023/05/24 07:49:00;;;;;;;15.13;6.70;;;14.30;88.80;;;;;;5099130;28;20051;-71
2023/05/24 07:51:26;;;;;;;16.83;6.95;;;14.10;88.80;;;;;;5092074;28;20039;-71
2023/05/24 07:53:51;;;;;;;19.08;6.80;;;14.10;88.90;;;;;;5095999;28;20028;-71
2023/05/24 07:56:17;;;;;;;16.85;6.90;;;14.30;87.90;;;;;;5081050;28;20048;-70
2023/05/24 07:58:45;;;;;;;13.88;6.15;;;14.30;86.80;;;;;;5078751;28;20309;-70
2023/05/24 08:01:12;;;;;;;16.60;7.22;;;14.40;87.10;;;;;;5090297;28;20032;-70
2023/05/24 08:03:38;;;;;;;16.63;6.85;;;14.50;87.00;;;;;;5081224;28;20051;-72
2023/05/24 08:06:06;;;;;;;17.55;6.90;;;14.00;88.10;;;;;;5079093;28;20028;-72
2023/05/24 08:08:32;;;;;;;18.77;6.75;;;13.70;88.50;;;;;;5078608;28;20031;-72
2023/05/24 08:10:57;;;;;;;15.68;7.65;;;13.90;88.90;;;;;;5090541;28;20032;-71
2023/05/24 08:13:23;;;;;;;18.05;7.07;;;13.80;88.50;;;;;;5078583;28;20107;-72
2023/05/24 08:15:49;;;;;;;18.02;6.97;;;13.80;88.50;;;;;;5086354;28;20028;-72
2023/05/24 08:18:15;;;;;;;15.05;5.95;;;13.80;88.70;;;;;;5084304;28;20037;-71
2023/05/24 08:20:40;;;;;;;17.02;7.18;;;13.70;89.00;;;;;;5078226;28;20395;-72
2023/05/24 08:23:06;;;;;;;19.98;7.80;;;13.60;88.80;;;;;;5077992;28;20026;-72
2023/05/24 08:25:31;;;;;;;16.88;7.15;;;13.20;90.00;;;;;;5085564;28;20020;-71
2023/05/24 08:27:57;;;;;;;20.30;7.65;;;13.30;90.80;;;;;;5080529;28;20429;-71
2023/05/24 08:30:23;;;;;;;14.82;7.25;;;13.50;90.70;;;;;;5083003;28;20028;-71
2023/05/24 08:32:49;;;;;;;16.60;7.28;;;13.30;90.00;;;;;;5078412;28;20027;-71
2023/05/24 08:35:15;;;;;;;18.73;7.25;;;12.90;90.60;;;;;;5077724;28;20352;-71
2023/05/24 08:37:40;;;;;;;19.42;7.45;;;12.90;91.40;;;;;;5060314;28;20033;-71
2023/05/24 08:40:08;;;;;;;19.35;7.50;;;12.90;90.40;;;;;;5080120;28;20043;-71
2023/05/24 08:42:37;;;;;;;18.40;6.97;;;12.90;90.80;;;;;;5097056;28;20428;-72
2023/05/24 08:45:08;;;;;;;16.50;6.90;;;13.00;91.00;;;;;;5091358;28;20079;-71
2023/05/24 08:47:35;;;;;;;15.82;6.78;;;13.10;90.80;;;;;;5081629;28;20048;-71
2023/05/24 08:50:02;;;;;;;17.08;6.35;;;12.90;90.80;;;;;;5082861;28;20417;-71
2023/05/24 08:52:30;;;;;;;11.73;5.28;;;12.90;90.60;;;;;;5079676;28;20032;-71
2023/05/24 08:54:57;;;;;;;13.77;6.20;;;12.90;91.10;;;;;;5091281;28;20024;-71
2023/05/24 08:57:25;;;;;;;14.05;5.88;;;12.90;90.20;;;;;;5098064;28;20036;-72
2023/05/24 08:59:54;;;;;;;14.30;6.82;;;12.90;90.00;;;;;;5082574;28;20054;-71
2023/05/24 09:02:21;;;;;;;17.65;7.10;;;12.90;90.60;;;;;;5084877;28;20120;-71
2023/05/24 09:04:48;;;;;;;19.00;6.85;;;12.80;90.70;;;;;;5084295;28;20024;-72
2023/05/24 09:07:18;;;;;;;19.38;9.13;;;12.30;92.20;;;;;;5077362;28;20111;-72
2023/05/24 09:09:48;;;;;;;18.30;7.22;;;12.00;93.10;;;;;;5075893;28;20021;-72
2023/05/24 09:12:17;;;;;;;16.70;7.30;;;11.80;94.20;;;;;;5062362;28;20089;-71
2023/05/24 09:14:46;;;;;;;17.25;7.47;;;11.90;94.30;;;;;;5096680;28;20337;-72
2023/05/24 09:17:15;;;;;;;20.73;6.88;;;11.80;94.90;;;;;;5087492;28;20350;-71
2023/05/24 09:19:45;;;;;;;18.80;7.13;;;12.00;95.30;;;;;;5078217;28;20032;-72
2023/05/24 09:22:13;;;;;;;19.90;7.40;;;11.90;95.00;;;;;;5093497;28;20032;-71
2023/05/24 09:24:42;;;;;;;17.38;8.23;;;11.80;95.60;;;;;;5096229;28;20027;-71
2023/05/24 09:27:08;;;;;;;23.95;9.13;;;11.80;95.40;;;;;;5097305;28;20028;-71
2023/05/24 09:29:37;;;;;;;15.40;8.00;;;11.60;95.70;;;;;;5093908;28;20028;-71
2023/05/24 09:32:06;;;;;;;19.15;8.10;;;11.60;96.00;;;;;;5092496;28;20101;-71
2023/05/24 09:34:43;;;;;;;24.48;8.73;;;11.70;96.60;;;;;;5085107;28;20099;-72
2023/05/24 09:37:12;;;;;;;18.65;7.97;;;12.30;95.60;;;;;;5079069;28;20051;-72
2023/05/24 09:39:42;;;;;;;20.95;8.98;;;12.70;94.30;;;;;;5095876;28;20421;-71
2023/05/24 09:42:13;;;;;;;19.02;8.55;;;13.10;93.10;;;;;;5090876;28;20036;-71
2023/05/24 09:44:38;;;;;;;24.02;8.02;;;13.10;92.50;;;;;;5095601;28;20055;-72
2023/05/24 09:47:04;;;;;;;26.65;10.32;;;12.90;93.30;;;;;;5084425;28;20068;-72
2023/05/24 09:49:30;;;;;;;16.50;7.40;;;13.60;92.10;;;;;;5091972;28;20357;-72
2023/05/24 09:51:56;;;;;;;16.23;7.15;;;14.30;90.40;;;;;;5095264;28;20309;-72
2023/05/24 09:54:24;;;;;;;18.30;9.60;;;15.10;88.50;;;;;;5091328;28;20021;-72
2023/05/24 09:56:50;;;;;;;14.50;7.60;;;15.10;86.00;;;;;;5094667;28;20425;-71
2023/05/24 09:59:17;;;;;;;16.60;7.43;;;14.90;87.00;;;;;;5091756;28;20032;-71
2023/05/24 10:01:43;;;;;;;16.13;8.15;;;14.80;87.70;;;;;;5089448;28;20028;-71
2023/05/24 10:04:08;;;;;;;19.52;7.55;;;14.70;87.50;;;;;;5088808;28;20020;-72
2023/05/24 10:06:38;;;;;;;19.17;8.70;;;14.60;87.50;;;;;;5085940;28;20028;-72
2023/05/24 10:09:05;;;;;;;18.15;7.32;;;14.30;88.40;;;;;;5078721;28;20042;-72
2023/05/24 10:11:32;;;;;;;20.77;7.70;;;14.30;86.80;;;;;;5075950;28;20058;-71
2023/05/24 10:13:58;;;;;;;18.75;8.73;;;13.80;87.00;;;;;;5064553;28;20390;-72
2023/05/24 10:16:24;;;;;;;22.05;8.43;;;13.60;87.40;;;;;;5095894;28;20059;-71
2023/05/24 10:18:50;;;;;;;20.17;8.18;;;13.50;88.90;;;;;;5073839;28;20036;-71
2023/05/24 10:21:18;;;;;;;19.98;7.97;;;13.60;87.80;;;;;;5082943;28;20024;-71
2023/05/24 10:23:49;;;;;;;20.17;7.65;;;13.50;88.30;;;;;;5078660;28;20325;-71
2023/05/24 10:26:15;;;;;;;17.98;7.78;;;13.80;88.30;;;;;;5093057;28;20021;-71
2023/05/24 10:28:44;;;;;;;16.80;8.05;;;13.80;86.10;;;;;;5092592;28;20032;-72
2023/05/24 10:31:14;;;;;;;13.73;7.35;;;13.80;87.30;;;;;;5084063;28;20024;-72
2023/05/24 10:33:43;;;;;;;18.30;8.32;;;13.70;87.70;;;;;;5078430;28;20027;-71
2023/05/24 10:36:11;;;;;;;16.52;7.38;;;14.00;86.00;;;;;;5082103;28;20047;-71
2023/05/24 10:38:40;;;;;;;20.08;7.57;;;13.90;86.20;;;;;;5076911;28;20096;-72
2023/05/24 10:41:11;;;;;;;16.45;7.40;;;13.80;85.90;;;;;;5089961;28;20040;-71
2023/05/24 10:43:37;;;;;;;19.55;9.40;;;13.80;86.90;;;;;;5080335;28;20029;-72
2023/05/24 10:46:04;;;;;;;17.88;7.88;;;13.80;85.70;;;;;;5094045;28;21817;-71
2023/05/24 10:48:35;;;;;;;20.73;8.57;;;13.70;86.70;;;;;;5095434;28;20393;-71
2023/05/24 10:51:20;;;;;;;18.15;8.02;;;13.70;88.00;;;;;;5085633;28;20330;-70
2023/05/24 10:53:48;;;;;;;21.70;7.93;;;13.70;87.70;;;;;;5059747;28;20321;-70
2023/05/24 10:56:14;;;;;;;19.92;7.03;;;13.70;88.20;;;;;;5061047;28;20032;-71
2023/05/24 10:58:45;;;;;;;22.15;8.38;;;13.50;87.90;;;;;;5075369;28;20064;-72
2023/05/24 11:01:25;;;;;;;18.13;7.40;;;13.40;88.40;;;;;;5076593;28;20032;-72
2023/05/24 11:04:04;;;;;;;16.95;7.13;;;13.40;87.60;;;;;;5093732;28;20016;-71
2023/05/24 11:07:00;;;;;;;19.10;7.32;;;13.40;88.50;;;;;;5097514;28;20039;-72
2023/05/24 11:09:26;;;;;;;19.63;6.85;;;13.10;88.90;;;;;;5091116;28;20119;-71
2023/05/24 11:12:06;;;;;;;24.05;7.32;;;13.20;88.70;;;;;;5093426;28;20055;-71
2023/05/24 11:14:35;;;;;;;16.77;6.93;;;13.30;87.50;;;;;;5094277;28;20425;-71
2023/05/24 11:17:01;;;;;;;17.20;7.60;;;13.00;89.80;;;;;;5081928;28;20313;-71
2023/05/24 11:19:52;;;;;;;24.83;7.90;;;12.80;89.20;;;;;;5099052;28;20054;-71
2023/05/24 11:22:23;;;;;;;19.45;8.13;;;12.50;89.60;;;;;;5096839;28;20040;-71
2023/05/24 11:24:50;;;;;;;20.25;7.70;;;12.40;90.90;;;;;;5098640;28;20078;-71
2023/05/24 11:27:16;;;;;;;16.92;7.55;;;12.30;90.00;;;;;;5099511;28;20066;-71
2023/05/24 11:29:43;;;;;;;17.92;8.48;;;12.20;91.10;;;;;;5098710;28;20024;-71
2023/05/24 11:32:14;;;;;;;17.10;7.47;;;12.30;91.40;;;;;;5097886;28;20418;-71
2023/05/24 11:34:40;;;;;;;18.23;7.60;;;12.00;91.40;;;;;;5081515;28;20028;-71
2023/05/24 11:37:06;;;;;;;18.52;7.15;;;12.00;91.60;;;;;;5076383;28;20052;-72
2023/05/24 11:39:34;;;;;;;15.70;7.15;;;12.00;91.50;;;;;;5077618;28;20036;-72
2023/05/24 11:42:01;;;;;;;18.67;8.38;;;11.90;90.90;;;;;;5063939;28;20086;-71
2023/05/24 11:44:30;;;;;;;16.48;7.75;;;11.80;91.60;;;;;;5077998;28;20025;-71
2023/05/24 11:46:59;;;;;;;21.08;7.45;;;11.90;91.60;;;;;;5061533;28;20016;-71
2023/05/24 11:49:26;;;;;;;18.25;6.97;;;11.80;91.60;;;;;;5074467;28;20321;-71
2023/05/24 11:51:54;;;;;;;19.38;7.68;;;12.00;91.70;;;;;;5097723;28;20052;-72
2023/05/24 11:54:21;;;;;;;25.30;9.32;;;12.00;91.10;;;;;;5096772;28;20026;-71
2023/05/24 11:56:46;;;;;;;19.92;7.65;;;11.80;91.70;;;;;;5099114;28;20112;-71
2023/05/24 11:59:21;;;;;;;19.55;7.78;;;11.60;92.80;;;;;;5094112;28;20107;-72
2023/05/24 12:01:46;;;;;;;19.45;7.88;;;11.70;92.20;;;;;;5096490;28;20028;-73
2023/05/24 12:04:12;;;;;;;21.17;8.07;;;11.80;91.50;;;;;;5078864;28;20049;-72
2023/05/24 12:06:42;;;;;;;23.17;8.27;;;11.80;91.20;;;;;;5081061;28;20025;-71
2023/05/24 12:09:12;;;;;;;16.00;7.50;;;11.80;91.10;;;;;;5090743;28;20398;-72
2023/05/24 12:11:39;;;;;;;15.13;7.22;;;11.80;90.90;;;;;;5080870;28;20032;-71
2023/05/24 12:14:06;;;;;;;20.02;7.72;;;12.10;91.20;;;;;;5093509;28;20057;-71
2023/05/24 12:16:32;;;;;;;15.48;7.50;;;12.50;89.80;;;;;;5097775;28;20016;-72
2023/05/24 12:18:58;;;;;;;19.27;8.20;;;12.40;89.80;;;;;;5097855;28;20058;-71
2023/05/24 12:21:25;;;;;;;20.20;7.50;;;12.40;90.30;;;;;;5097311;28;20320;-70
2023/05/24 12:23:50;;;;;;;18.48;7.25;;;12.70;89.90;;;;;;5077587;28;20421;-71
2023/05/24 12:26:19;;;;;;;19.80;7.63;;;12.90;89.60;;;;;;5078033;28;20032;-71
2023/05/24 12:28:52;;;;;;;18.60;6.93;;;13.30;88.30;;;;;;5078384;28;20088;-71
2023/05/24 12:31:18;;;;;;;17.27;6.90;;;12.90;88.00;;;;;;5087545;28;20024;-71
2023/05/24 12:33:44;;;;;;;21.75;7.93;;;13.00;88.40;;;;;;5083955;28;20279;-71
2023/05/24 12:36:09;;;;;;;20.55;8.00;;;12.60;87.50;;;;;;5093208;28;20382;-71
2023/05/24 12:38:35;;;;;;;22.20;7.82;;;12.30;89.10;;;;;;5079449;28;20063;-71
2023/05/24 12:41:00;;;;;;;21.80;8.85;;;12.40;89.70;;;;;;5083466;28;20032;-71